Airfield :







YOU CAN JOIN US ON...

 
LOGIN :

Register | Disclaimer

   EN    FR    IT 

 









Legend :    VFR   Marginal VFR   IFR   Intensive IFR   Very Intensive IFR
Visi :
Ceiling :
>= 8 km
>= 3000ft
5 to 8 km
1000 to 3000 ft
1500m to 5 km
500 to 1000 ft
800 to 1500m
200 to 500 ft
< 800m
< 200 ft
Symbols :   Thunderstorms  Fog  Heavy snow  Heavy precipitations  Wind > 20 kt






- Airport Elevation : 241 ft
- IATA code : CEF


KCEF - Westover ARB/Metropolitan

CURRENT METAR :
  • 070956Z AUTO 00000KT 10SM BKN100 04/03 A2996 RMK AO2 SLP152 T00370031

EXPIRED METARs :
  • 070856Z AUTO 00000KT 10SM OVC110 04/03 A2995 RMK AO2 SLP149 T00360033 53002
  • 070756Z AUTO 00000KT 10SM CLR 04/03 A2995 RMK AO2 SLP149 T00390032

TAF TAF KCEF
Valid from the 07 at 02:00 until the 08 at 08:00 UTC


070200Z 0702/0808 01005KT 9999 FEW055 BKN180 QNH2992INS
BECMG 0705/0706 01005KT 9999 SCT050 BKN120 OVC180 QNH2994INS
BECMG 0712/0713 09009KT 9999 BKN050 BKN180 620502 QNH2990INS
BECMG 0719/0720 12010G15KT 9999 SCT030 BKN050 BKN160 620504 QNH2990INS
BECMG 0800/0801 10007KT 9999 FEW030 BKN050 620503 QNH2986INS TX17/0717Z TN04/0710Z LAST NO AMDS AFT 0703 NEXT 0711
KZBW FIR / North America



MET'MAP, your aeronautical weather chart ! - Copyright ORBIFLY December 2007 - Disclaimer

ORBIFLY MET'MAP TEAM :

Programming & Development : Alexandra Zaïnal
Concept & original design : Baudouin d'Aumeries
Assistance for programming : Marc-Olivier Méhu
Technical & hardware support : Manuel Goepfert

Contact : metmap@orbifly.com




SOURCES & CREDITS :

   NOAA